AirNav   Pilot Hours Calculator
 
 1060 users online  

55OL Higley Field Airport
Guthrie, Oklahoma, USA

GOING TO GUTHRIE?


FAA INFORMATION EFFECTIVE 04 NOVEMBER 2021

Location

FAA Identifier: 55OL
Lat/Long: 35-46-49.5500N 097-34-06.2100W
35-46.825833N 097-34.103500W
35.7804306,-97.5683917
(estimated)
Elevation: 1080 ft. / 329 m (estimated)
From city: 10 miles SW of GUTHRIE, OK
Time zone: UTC -5 (UTC -6 during Standard Time)
Zip code: 73003

Airport Operations

Airport use: Private use. Permission required prior to landing
Activation date: 04/2019
Control tower: no
ARTCC: FORT WORTH CENTER
FSS: MC ALESTER FLIGHT SERVICE STATION
Attendance: 
Segmented circle: no

Airport Communications

WX ASOS at GOK (9 nm NE): 133.975 (405-282-0478)
WX AWOS-3 at HSD (13 nm SW): 120.975 (405-283-9848)
WX ASOS at PWA (15 nm S): PHONE 405-798-2013

Nearby radio navigation aids

VOR radial/distance  VOR name  Freq  Var
PWAr007/15.3WILEY POST VOR/DME113.4008E
IFIr085/21.2KINGFISHER VORTAC114.7009E
IRWr358/25.4WILL ROGERS VORTAC114.1007E
SWOr215/35.6STILLWATER VOR/DME108.4007E
ODGr155/37.2WOODRING VOR/DME109.0008E
ENDr148/37.9VANCE VORTAC115.4005E

Airport Services

Runway Information

Runway 17/35

Dimensions: 2600 x 90 ft. / 792 x 27 m
Surface: turf, in fair condition
RUNWAY 17  RUNWAY 35
Traffic pattern: rightright

Airport Ownership and Management from official FAA records

Ownership: Privately-owned
Owner: RADIAL ENGINES LTD
11701 W FORREST HILLS RD
GUTHRIE, OK 73044
Phone 405-433-2263
Manager: RADIAL ENGINES LTD
11701 W FORREST HILLS RD
GUTHRIE, OK 73044
Phone 405-433-2263

Airport Operational Statistics

Aircraft based on the field: 1
Single engine airplanes: 1
    

Additional Remarks

OWNER DESIRES CHARTING.

Instrument Procedures

There are no published instrument procedures at 55OL.

Some nearby airports with instrument procedures:

KGOK - Guthrie-Edmond Regional Airport (9 nm NE)
KHSD - Sundance Airport (13 nm SW)
KPWA - Wiley Post Airport (15 nm S)
KRCE - Clarence E Page Municipal Airport (22 nm SW)
KOKC - Will Rogers World Airport (23 nm S)
 
Loc | Ops | Rwys | IFR | FBO | Links
Com | Nav | Svcs | Stats | Notes
Aerial photo
No photo
 
Airport distance calculator
Flying to Higley Field Airport? Find the distance to fly.

From to 55OL

Sunrise and sunset
Times for 27-Nov-2021
 Local
(UTC-6)
 Zulu
(UTC)
Morning civil twilight06:5112:51
Sunrise07:1913:19
Sunset17:1723:17
Evening civil twilight17:4523:45

Current date and time
Zulu (UTC)  28-Nov-2021 03:25:54
Local (UTC-6)  27-Nov-2021 21:25:54
 
METAR
KGOK 
9nm NE 
280253Z AUTO 36004KT 10SM CLR 12/01 A3011 RMK AO2 SLP198 T01170006 51027
KHSD 
13nm SW 
280255Z AUTO 34003KT 10SM CLR 11/M01 A3011 RMK A01
KPWA 
15nm S 
280253Z 34004KT 10SM CLR 12/M01 A3011 RMK AO2 SLP197 T01221011 51026
TAF
KOKC 
24nm S 
271720Z 2718/2818 22009G14KT P6SM SCT250 FM272100 31011G13KT P6SM SCT250 FM272300 34008KT P6SM BKN200
KTIK 
24nm SE 
280200Z 2802/2908 36009KT 9999 FEW150 SCT250 QNH3002INS BECMG 2823/2824 VRB03KT 9999 FEW250 QNH3018INS TX15/2821Z TN03/2812Z
NOTAMs
Click for the latest NOTAMs
NOTAMs are issued by the DoD/FAA and will open in a separate window not controlled by AirNav.

 

 
 

Would you like to see your business listed on this page?

 If your business provides an interesting product or service to pilots, flight crews, aircraft, or users of the Higley Field Airport, you should consider listing it here.  To start the listing process, click on the button below
 
Add a business
 

Other Pages about Higley Field Airport

Update a link
 
Copyright © AirNav, LLC. All rights reserved. Privacy Policy  Contact